Time;durP1;ratioP1;P1;durP2;ratioP2;P2;SDS_P1;SDS_P2;PMS_P1;PMS_P2;Temp;Humidity;BMP_temperature;BMP_pressure;BME280_temperature;BME280_humidity;BME280_pressure;Samples;Min_cycle;Max_cycle;Signal;HPM_P1;HPM_P2
2021/10/12 00:05:39;;;;;;;37.47;21.23;;;;;;;6.92;91.83;101290.59;20740086;28;20046;-66
2021/10/12 00:15:40;;;;;;;38.67;21.40;;;;;;;6.90;91.49;101281.91;20739953;28;20112;-66
2021/10/12 00:25:42;;;;;;;40.03;21.42;;;;;;;6.97;91.29;101282.84;20739129;28;20141;-66
2021/10/12 00:35:43;;;;;;;41.55;22.15;;;;;;;7.05;91.56;101294.25;20738522;28;20576;-67
2021/10/12 00:45:44;;;;;;;38.50;21.27;;;;;;;7.12;91.47;101287.38;20737046;28;20450;-67
2021/10/12 00:55:46;;;;;;;38.40;21.00;;;;;;;7.26;91.08;101280.59;20737038;28;20054;-66
2021/10/12 01:05:48;;;;;;;37.08;20.67;;;;;;;7.30;91.10;101258.06;20736192;28;20108;-66
2021/10/12 01:15:51;;;;;;;37.83;20.50;;;;;;;7.37;91.26;101258.16;20736337;28;20097;-66
2021/10/12 01:25:52;;;;;;;33.13;19.58;;;;;;;7.44;91.45;101251.28;20736064;28;20092;-66
2021/10/12 01:35:54;;;;;;;37.50;20.40;;;;;;;7.55;91.14;101235.75;20733698;28;20096;-66
2021/10/12 01:45:59;;;;;;;33.08;19.17;;;;;;;7.61;91.57;101214.97;20733583;28;20042;-68
2021/10/12 01:56:02;;;;;;;38.17;21.52;;;;;;;7.62;92.11;101208.91;20744576;28;20108;-69
2021/10/12 02:06:04;;;;;;;33.63;20.30;;;;;;;7.75;92.55;101202.94;20752751;28;20050;-68
2021/10/12 02:16:06;;;;;;;32.72;19.83;;;;;;;7.81;92.61;101192.56;20753358;28;20105;-68
2021/10/12 02:26:07;;;;;;;39.25;22.65;;;;;;;7.88;92.82;101176.09;20748251;28;20092;-68
2021/10/12 02:36:09;;;;;;;41.00;22.05;;;;;;;7.94;93.15;101168.31;20747365;28;20049;-67
2021/10/12 02:46:10;;;;;;;39.03;23.20;;;;;;;8.02;92.97;101136.22;20746808;28;20070;-68
2021/10/12 02:56:12;;;;;;;44.00;24.30;;;;;;;8.05;93.15;101115.34;20746245;28;20054;-67
2021/10/12 03:06:13;;;;;;;40.38;23.17;;;;;;;8.03;92.85;101117.09;20744595;28;20042;-67
2021/10/12 03:16:15;;;;;;;40.20;23.88;;;;;;;8.14;93.65;101107.59;20744790;28;20069;-68
2021/10/12 03:26:17;;;;;;;41.97;23.10;;;;;;;8.15;93.49;101099.78;20744013;28;20082;-68
2021/10/12 03:36:19;;;;;;;40.28;24.50;;;;;;;8.17;93.38;101087.63;20742527;28;20112;-68
2021/10/12 03:46:20;;;;;;;45.67;24.67;;;;;;;8.15;93.18;101096.31;20742163;28;20111;-68
2021/10/12 03:56:22;;;;;;;41.13;23.38;;;;;;;8.09;93.81;101098.88;20741268;28;20085;-69
2021/10/12 04:06:23;;;;;;;45.20;23.52;;;;;;;8.10;93.25;101111.06;20740505;28;20566;-68
2021/10/12 04:16:25;;;;;;;42.58;24.30;;;;;;;8.06;93.65;101104.09;20738040;28;20054;-69
2021/10/12 04:26:27;;;;;;;42.63;24.13;;;;;;;8.05;93.19;101099.72;20739125;28;20736;-69
2021/10/12 04:36:28;;;;;;;44.92;23.73;;;;;;;8.15;93.46;101093.72;20745650;28;20104;-70
2021/10/12 04:46:30;;;;;;;44.53;24.48;;;;;;;8.12;93.82;101093.69;20738578;28;20054;-71
2021/10/12 04:56:31;;;;;;;40.22;23.33;;;;;;;8.11;93.82;101090.19;20738014;28;20073;-71
2021/10/12 05:06:33;;;;;;;37.78;21.45;;;;;;;8.12;93.84;101072.81;20736107;28;20053;-74
2021/10/12 05:16:35;;;;;;;38.92;22.65;;;;;;;8.20;94.03;101063.31;20736437;28;20058;-75
2021/10/12 05:26:36;;;;;;;38.28;22.23;;;;;;;8.17;94.23;101042.41;20741096;28;20041;-75
2021/10/12 05:36:38;;;;;;;39.72;21.75;;;;;;;8.08;94.57;101050.19;20752317;28;20581;-74
2021/10/12 05:46:40;;;;;;;39.03;20.23;;;;;;;8.15;94.44;101041.53;20751397;28;20675;-72
2021/10/12 05:56:55;;;;;;;34.95;21.33;;;;;;;8.22;94.47;101043.28;20750426;28;20062;-71
2021/10/12 06:07:01;;;;;;;32.33;19.33;;;;;;;8.26;94.97;101034.63;20748746;28;20050;-71
2021/10/12 06:17:03;;;;;;;36.40;20.05;;;;;;;8.29;94.83;101038.97;20748104;28;20421;-72
2021/10/12 06:27:04;;;;;;;39.75;23.35;;;;;;;8.29;94.83;101019.00;20747955;28;20045;-72
2021/10/12 06:37:06;;;;;;;39.65;22.85;;;;;;;8.32;94.76;101029.41;20744845;28;20116;-72
2021/10/12 06:47:07;;;;;;;48.42;25.17;;;;;;;8.41;94.66;101023.41;20745393;28;20100;-73
2021/10/12 06:57:12;;;;;;;51.78;25.85;;;;;;;8.59;94.37;101043.47;20745416;28;20454;-73
2021/10/12 07:07:14;;;;;;;48.88;26.85;;;;;;;8.55;94.92;101047.78;20736830;28;20060;-70
2021/10/12 07:17:15;;;;;;;44.70;26.15;;;;;;;8.65;94.52;101056.53;20736063;28;20057;-70
2021/10/12 07:27:17;;;;;;;46.35;25.40;;;;;;;8.82;93.73;101048.75;20735632;28;20085;-70
2021/10/12 07:37:19;;;;;;;39.55;23.02;;;;;;;9.08;93.05;101047.03;20734633;28;20050;-68
2021/10/12 07:47:21;;;;;;;39.63;21.83;;;;;;;9.22;92.06;101047.03;20735444;28;20046;-72
2021/10/12 07:57:23;;;;;;;38.42;21.27;;;;;;;9.22;92.08;101047.91;20728747;28;20066;-71
2021/10/12 08:07:24;;;;;;;37.80;21.65;;;;;;;9.45;92.02;101041.81;20732467;28;20046;-72
2021/10/12 08:17:26;;;;;;;35.70;20.73;;;;;;;9.55;91.12;101034.81;20731759;28;20461;-69
2021/10/12 08:27:28;;;;;;;35.92;20.25;;;;;;;9.55;91.93;101029.59;20732140;28;20137;-69
2021/10/12 08:37:29;;;;;;;36.38;20.05;;;;;;;9.83;91.92;101015.59;20732264;28;20045;-69
2021/10/12 08:47:32;;;;;;;29.58;19.05;;;;;;;10.13;91.19;101008.50;20730265;28;20054;-70
2021/10/12 08:57:38;;;;;;;32.90;18.05;;;;;;;10.31;90.13;101003.22;20730390;28;20061;-69
2021/10/12 09:07:42;;;;;;;29.27;18.02;;;;;;;10.33;90.67;101004.06;20729285;28;20560;-69
2021/10/12 09:17:52;;;;;;;36.42;18.92;;;;;;;10.30;91.05;100991.03;20734382;28;20076;-69
2021/10/12 09:27:57;;;;;;;55.67;31.45;;;;;;;10.51;91.07;100977.78;20728665;28;20050;-69
2021/10/12 09:38:09;;;;;;;;;;;;;;;10.71;89.23;100968.94;20728993;28;20054;-72
2021/10/12 09:48:31;;;;;;;31.40;18.05;;;;;;;10.74;90.37;100966.31;20728398;28;19967;-72
2021/10/12 09:58:33;;;;;;;24.27;15.85;;;;;;;10.90;89.71;100952.19;20728016;28;20124;-68
2021/10/12 10:08:40;;;;;;;23.58;15.38;;;;;;;10.70;90.44;100943.63;20726179;28;20049;-69
2021/10/12 10:19:02;;;;;;;28.85;16.98;;;;;;;10.95;89.11;100918.97;20738538;28;20110;-71
2021/10/12 10:29:19;;;;;;;23.73;14.10;;;;;;;10.98;89.74;100908.47;20741722;28;20072;-71
2021/10/12 10:39:35;;;;;;;27.55;14.60;;;;;;;11.23;88.97;100903.84;20740029;28;20111;-69
2021/10/12 10:50:15;;;;;;;22.88;14.40;;;;;;;11.55;88.07;100884.28;20739684;28;20458;-69
2021/10/12 11:00:18;;;;;;;21.17;12.35;;;;;;;11.86;85.96;100883.91;20739322;28;20095;-69
2021/10/12 11:10:28;;;;;;;22.25;11.48;;;;;;;12.03;84.06;100866.19;20737834;28;20050;-74
2021/10/12 11:20:41;;;;;;;18.58;10.40;;;;;;;12.12;83.73;100854.66;20738374;28;20384;-74
2021/10/12 11:30:43;;;;;;;18.63;8.82;;;;;;;12.25;81.14;100833.47;20735944;28;20532;-73
2021/10/12 11:40:44;;;;;;;16.27;8.18;;;;;;;12.38;81.22;100820.16;20743670;28;20077;-73
2021/10/12 11:50:48;;;;;;;15.00;8.23;;;;;;;12.78;80.13;100809.81;20734938;28;20058;-73
2021/10/12 12:00:49;;;;;;;13.27;7.72;;;;;;;12.60;77.23;100784.75;20735015;28;20041;-72
2021/10/12 12:10:52;;;;;;;13.77;6.90;;;;;;;12.47;78.34;100776.22;20732462;28;20072;-72
2021/10/12 12:21:00;;;;;;;14.80;7.15;;;;;;;12.46;78.60;100763.13;20732488;28;20050;-72
2021/10/12 12:31:21;;;;;;;12.70;6.60;;;;;;;12.45;78.16;100764.84;20731643;28;20046;-74
2021/10/12 12:41:23;;;;;;;13.65;6.10;;;;;;;12.50;79.53;100747.28;20730610;28;20061;-72
2021/10/12 12:51:29;;;;;;;16.52;7.57;;;;;;;12.41;79.93;100747.44;20730242;28;20135;-72
2021/10/12 13:01:30;;;;;;;15.88;7.55;;;;;;;12.26;82.88;100739.81;20728942;28;20950;-73
2021/10/12 13:11:35;;;;;;;13.68;7.13;;;;;;;12.02;84.08;100717.47;20728758;28;20054;-75
2021/10/12 13:21:36;;;;;;;14.35;8.25;;;;;;;11.88;84.56;100707.22;20728537;28;20046;-72
2021/10/12 13:31:38;;;;;;;17.33;8.10;;;;;;;11.89;85.16;100695.81;20725957;28;20058;-69
2021/10/12 13:41:53;;;;;;;18.38;9.60;;;;;;;11.81;85.75;100692.41;20727940;28;20050;-71
2021/10/12 13:51:54;;;;;;;15.27;9.97;;;;;;;11.78;85.86;100687.22;20739244;28;20108;-71
2021/10/12 14:01:56;;;;;;;15.00;8.07;;;;;;;11.75;84.36;100675.03;20746626;28;20054;-73
2021/10/12 14:11:58;;;;;;;14.30;7.10;;;;;;;11.74;85.35;100672.44;20742434;28;20089;-72
2021/10/12 14:22:00;;;;;;;14.02;6.90;;;;;;;11.83;84.24;100653.94;20732998;28;20101;-73
2021/10/12 14:32:04;;;;;;;12.52;5.90;;;;;;;11.82;83.16;100657.44;20739755;28;20060;-73
2021/10/12 14:42:05;;;;;;;13.82;5.68;;;;;;;11.89;82.69;100637.25;20738299;28;20049;-71
2021/10/12 14:52:07;;;;;;;12.60;4.28;;;;;;;11.89;82.32;100638.09;20737866;28;20050;-71
2021/10/12 15:02:09;;;;;;;12.07;4.75;;;;;;;11.85;81.69;100631.19;20737111;28;20042;-71
2021/10/12 15:12:11;;;;;;;11.80;4.82;;;;;;;11.84;81.23;100624.19;20737340;28;20058;-71
2021/10/12 15:22:13;;;;;;;9.73;4.05;;;;;;;11.80;79.81;100627.72;20734763;28;20045;-71
2021/10/12 15:32:15;;;;;;;10.65;4.70;;;;;;;11.62;80.60;100625.41;20735386;28;20053;-71
2021/10/12 15:42:18;;;;;;;6.47;3.10;;;;;;;11.63;79.41;100620.13;20734483;28;20115;-72
2021/10/12 15:52:20;;;;;;;9.57;3.70;;;;;;;11.56;79.50;100627.25;20733610;28;20053;-66
2021/10/12 16:02:22;;;;;;;11.20;4.15;;;;;;;11.49;80.25;100622.97;20733573;28;20062;-66
2021/10/12 16:12:26;;;;;;;12.40;5.00;;;;;;;11.49;80.79;100628.22;20731545;28;20057;-67
2021/10/12 16:22:27;;;;;;;12.68;5.05;;;;;;;11.49;80.07;100636.09;20732547;28;20057;-67
2021/10/12 16:32:32;;;;;;;10.23;5.53;;;;;;;11.41;80.11;100629.25;20731534;28;20052;-66
2021/10/12 16:42:34;;;;;;;10.18;5.97;;;;;;;11.37;82.31;100628.44;20730638;28;20054;-68
2021/10/12 16:52:37;;;;;;;15.13;6.78;;;;;;;11.15;84.59;100632.25;20729721;28;20111;-66
2021/10/12 17:02:38;;;;;;;13.02;7.55;;;;;;;10.95;86.76;100638.63;20728663;28;20049;-67
2021/10/12 17:12:40;;;;;;;13.77;6.10;;;;;;;10.86;88.41;100656.22;20728375;28;20571;-69
2021/10/12 17:22:42;;;;;;;14.27;7.47;;;;;;;10.70;89.41;100650.31;20727822;28;20042;-69
2021/10/12 17:32:43;;;;;;;15.02;8.55;;;;;;;10.62;90.60;100658.25;20727423;28;20053;-68
2021/10/12 17:42:45;;;;;;;17.55;9.00;;;;;;;10.62;90.83;100663.50;20728277;28;20054;-68
2021/10/12 17:52:50;;;;;;;12.15;8.32;;;;;;;10.59;90.11;100665.28;20726831;28;20053;-68
2021/10/12 18:02:52;;;;;;;17.58;9.88;;;;;;;10.48;90.81;100658.41;20726760;28;20053;-68
2021/10/12 18:12:54;;;;;;;12.68;8.90;;;;;;;10.43;92.02;100660.22;20726111;28;20076;-68
2021/10/12 18:22:56;;;;;;;19.35;9.02;;;;;;;10.35;91.77;100675.16;20727075;28;20056;-69
2021/10/12 18:32:59;;;;;;;15.43;9.35;;;;;;;10.26;92.67;100680.47;20727914;28;20050;-68
2021/10/12 18:43:01;;;;;;;18.15;11.20;;;;;;;10.34;91.85;100698.69;20740398;28;20450;-71
2021/10/12 18:53:03;;;;;;;21.90;11.82;;;;;;;10.33;92.16;100697.84;20739438;28;20522;-66
2021/10/12 19:03:05;;;;;;;18.58;11.70;;;;;;;10.31;92.70;100699.63;20739776;28;20415;-66
2021/10/12 19:13:08;;;;;;;18.55;10.85;;;;;;;10.27;92.24;100711.84;20737414;28;20065;-67
2021/10/12 19:23:09;;;;;;;14.35;9.38;;;;;;;10.30;91.60;100707.47;20737200;28;20100;-70
2021/10/12 19:33:11;;;;;;;18.83;10.45;;;;;;;10.12;93.27;100718.97;20728196;28;20529;-70
2021/10/12 19:43:13;;;;;;;21.10;10.85;;;;;;;10.07;93.18;100719.00;20732610;28;20049;-69
2021/10/12 19:53:14;;;;;;;25.55;11.93;;;;;;;10.09;92.87;100724.19;20733067;28;20556;-69
2021/10/12 20:13:36;;;;;;;17.35;11.23;;;;;;;9.62;94.27;100738.50;20731409;28;20054;-70
2021/10/12 20:23:38;;;;;;;18.30;12.63;;;;;;;9.45;95.81;100752.53;20732497;28;20100;-69
2021/10/12 20:33:40;;;;;;;24.30;14.05;;;;;;;9.32;95.38;100761.31;20730205;28;20046;-68
2021/10/12 20:43:41;;;;;;;33.55;16.75;;;;;;;9.12;96.36;100778.84;20730646;28;20053;-70
2021/10/12 20:53:43;;;;;;;22.80;14.40;;;;;;;8.94;96.25;100796.28;20729302;28;20115;-69
2021/10/12 21:03:45;;;;;;;28.25;18.08;;;;;;;8.81;96.82;100809.38;20728214;28;20053;-70
2021/10/12 21:13:47;;;;;;;36.55;16.20;;;;;;;8.60;96.14;100818.97;20727390;28;20077;-69
2021/10/12 21:23:48;;;;;;;18.38;11.23;;;;;;;8.46;95.75;100812.91;20731349;28;20042;-69
2021/10/12 21:33:50;;;;;;;14.23;9.48;;;;;;;8.26;95.56;100831.13;20728549;28;20112;-69
2021/10/12 21:43:51;;;;;;;12.68;7.40;;;;;;;8.20;94.09;100834.63;20727441;28;20081;-69
2021/10/12 21:53:53;;;;;;;12.80;8.77;;;;;;;8.05;94.74;100845.03;20726053;28;20054;-68
2021/10/12 22:03:54;;;;;;;19.52;12.48;;;;;;;7.85;95.36;100850.19;20727806;28;20045;-68
2021/10/12 22:13:56;;;;;;;16.63;9.65;;;;;;;7.67;95.28;100855.38;20744465;28;20430;-69
2021/10/12 22:23:58;;;;;;;12.77;7.97;;;;;;;7.46;94.90;100864.81;20748028;28;20506;-69
2021/10/12 22:34:01;;;;;;;14.90;8.57;;;;;;;7.36;95.41;100857.81;20745203;28;20123;-68
2021/10/12 22:44:04;;;;;;;15.27;9.50;;;;;;;7.26;95.60;100866.47;20746578;28;20103;-68
2021/10/12 22:54:05;;;;;;;12.32;7.18;;;;;;;7.13;95.97;100873.31;20745573;28;20518;-68
2021/10/12 23:04:07;;;;;;;10.40;6.70;;;;;;;6.85;95.83;100882.72;20744808;28;20081;-69
2021/10/12 23:14:09;;;;;;;12.88;6.38;;;;;;;6.68;95.11;100899.91;20744229;28;20490;-69
2021/10/12 23:24:11;;;;;;;10.90;6.88;;;;;;;6.54;95.85;100897.19;20743500;28;20111;-69
2021/10/12 23:34:14;;;;;;;9.80;6.35;;;;;;;6.38;95.45;100901.41;20742640;28;20049;-69
2021/10/12 23:44:16;;;;;;;10.95;6.35;;;;;;;6.21;95.07;100908.16;20742489;28;20052;-69
2021/10/12 23:54:18;;;;;;;9.95;5.30;;;;;;;6.18;95.23;100926.34;20742623;28;20054;-68
